createdAt,value
2022-10-17T00:00:45.566Z,98816.72
2022-10-17T00:03:12.373Z,98816.72
2022-10-17T00:05:43.945Z,98808.50
2022-10-17T00:08:12.008Z,98812.28
2022-10-17T00:10:39.873Z,98813.94
2022-10-17T00:13:07.666Z,98804.50
2022-10-17T00:15:34.744Z,98813.06
2022-10-17T00:18:01.591Z,98817.72
2022-10-17T00:20:30.392Z,98808.41
2022-10-17T00:22:57.913Z,98815.81
2022-10-17T00:25:24.702Z,98812.41
2022-10-17T00:27:51.472Z,98820.28
2022-10-17T00:30:18.637Z,98817.28
2022-10-17T00:32:45.673Z,98827.28
2022-10-17T00:35:12.381Z,98819.13
2022-10-17T00:37:39.117Z,98817.16
2022-10-17T00:40:07.268Z,98820.81
2022-10-17T00:42:34.397Z,98827.63
2022-10-17T00:45:07.247Z,98825.09
2022-10-17T00:47:35.295Z,98832.28
2022-10-17T00:50:05.011Z,98820.53
2022-10-17T00:52:32.670Z,98828.84
2022-10-17T00:55:18.163Z,98823.63
2022-10-17T00:57:45.959Z,98825.47
2022-10-17T01:00:14.098Z,98817.00
2022-10-17T01:02:41.614Z,98823.22
2022-10-17T01:05:09.698Z,98819.00
2022-10-17T01:07:37.516Z,98822.38
2022-10-17T01:10:06.554Z,98825.47
2022-10-17T01:12:52.602Z,98824.91
2022-10-17T01:15:28.504Z,98823.09
2022-10-17T01:18:13.978Z,98832.25
2022-10-17T01:21:16.499Z,98831.38
2022-10-17T01:24:28.198Z,98828.69
2022-10-17T01:27:31.999Z,98830.09
2022-10-17T01:30:24.022Z,98832.50
2022-10-17T01:33:02.983Z,98837.53
2022-10-17T01:35:36.934Z,98834.81
2022-10-17T01:38:49.212Z,98837.81
2022-10-17T01:41:46.993Z,98826.66
2022-10-17T01:44:22.108Z,98825.00
2022-10-17T01:47:01.333Z,98837.22
2022-10-17T01:49:31.385Z,98838.19
2022-10-17T01:52:04.007Z,98829.88
2022-10-17T01:54:38.500Z,98830.22
2022-10-17T01:57:11.548Z,98823.63
2022-10-17T01:59:45.408Z,98840.50
2022-10-17T02:02:15.533Z,98832.19
2022-10-17T02:04:42.732Z,98834.25
2022-10-17T02:07:12.887Z,98836.09
2022-10-17T02:09:41.115Z,98835.97
2022-10-17T02:12:26.469Z,98843.31
2022-10-17T02:15:21.286Z,98832.75
2022-10-17T02:18:19.955Z,98839.22
2022-10-17T02:21:13.353Z,98836.38
2022-10-17T02:23:51.999Z,98840.88
2022-10-17T02:26:29.751Z,98838.94
2022-10-17T02:29:02.380Z,98841.56
2022-10-17T02:31:47.362Z,98844.25
2022-10-17T02:34:27.888Z,98834.31
2022-10-17T02:36:59.847Z,98844.38
2022-10-17T02:39:29.015Z,98845.00
2022-10-17T02:42:01.391Z,98838.28
2022-10-17T02:44:29.163Z,98837.44
2022-10-17T02:47:03.740Z,98840.31
2022-10-17T02:49:36.259Z,98839.00
2022-10-17T02:52:14.444Z,98834.28
2022-10-17T02:55:01.124Z,98841.88
2022-10-17T02:57:59.016Z,98834.34
2022-10-17T03:00:27.852Z,98825.66
2022-10-17T03:02:56.226Z,98827.41
2022-10-17T03:05:29.375Z,98834.72
2022-10-17T03:07:56.525Z,98838.69
2022-10-17T03:10:24.768Z,98834.59
2022-10-17T03:12:51.479Z,98837.59
2022-10-17T03:15:19.370Z,98844.22
2022-10-17T03:20:18.444Z,98845.66
2022-10-17T03:22:45.519Z,98849.16
2022-10-17T03:25:12.192Z,98851.66
2022-10-17T03:27:39.311Z,98861.22
2022-10-17T03:30:06.677Z,98863.84
2022-10-17T03:32:34.912Z,98859.69
2022-10-17T03:35:02.334Z,98856.63
2022-10-17T03:37:29.541Z,98860.94
2022-10-17T03:39:56.430Z,98873.06
2022-10-17T03:42:23.820Z,98870.56
2022-10-17T03:44:50.407Z,98873.41
2022-10-17T03:47:17.224Z,98869.31
2022-10-17T03:49:45.404Z,98873.34
2022-10-17T03:52:13.480Z,98877.78
2022-10-17T03:54:40.228Z,98874.59
2022-10-17T03:57:07.069Z,98877.63
2022-10-17T03:59:34.564Z,98875.28
2022-10-17T04:02:06.667Z,98877.81
2022-10-17T04:04:33.354Z,98874.28
2022-10-17T04:07:00.077Z,98876.00
2022-10-17T04:09:26.723Z,98872.50
2022-10-17T04:11:59.605Z,98878.38
2022-10-17T04:14:26.983Z,98880.78
2022-10-17T04:16:53.906Z,98875.06
2022-10-17T04:19:21.410Z,98878.59
2022-10-17T04:21:49.616Z,98879.13
2022-10-17T04:24:17.485Z,98878.03
2022-10-17T04:26:52.326Z,98881.31
2022-10-17T04:29:24.789Z,98888.56
2022-10-17T04:31:56.117Z,98885.13
2022-10-17T04:34:41.239Z,98874.47
2022-10-17T04:37:07.975Z,98879.75
2022-10-17T04:39:35.543Z,98888.78
2022-10-17T04:42:03.119Z,98886.53
2022-10-17T04:45:17.006Z,98901.63
2022-10-17T04:47:45.359Z,98900.53
2022-10-17T04:50:12.126Z,98871.50
2022-10-17T04:52:40.491Z,98892.84
2022-10-17T04:55:09.309Z,98887.84
2022-10-17T04:57:36.324Z,98883.88
2022-10-17T05:00:14.524Z,98889.78
2022-10-17T05:03:00.570Z,98878.44
2022-10-17T05:05:29.483Z,98873.44
2022-10-17T05:07:57.290Z,98894.22
2022-10-17T05:10:26.790Z,98880.59
2022-10-17T05:12:54.608Z,98889.91
2022-10-17T05:15:23.922Z,98887.72
2022-10-17T05:17:55.992Z,98890.50
2022-10-17T05:20:24.016Z,98894.41
2022-10-17T05:22:50.985Z,98892.69
2022-10-17T05:25:18.616Z,98909.81
2022-10-17T05:27:47.126Z,98912.41
2022-10-17T05:30:58.830Z,98916.06
2022-10-17T05:33:25.883Z,98908.25
2022-10-17T05:35:53.368Z,98910.72
2022-10-17T05:38:20.438Z,98917.97
2022-10-17T05:40:48.812Z,98912.69
2022-10-17T05:43:15.750Z,98925.34
2022-10-17T05:45:43.403Z,98929.34
2022-10-17T05:48:16.854Z,98930.06
2022-10-17T05:50:44.241Z,98935.69
2022-10-17T05:53:16.008Z,98941.53
2022-10-17T05:56:00.629Z,98949.28
2022-10-17T06:01:27.043Z,98961.97
2022-10-17T06:03:53.982Z,98970.69
2022-10-17T06:06:20.801Z,98968.00
2022-10-17T06:08:48.617Z,98973.41
2022-10-17T06:11:20.862Z,98975.66
2022-10-17T06:13:48.142Z,98974.16
2022-10-17T06:16:22.161Z,98991.69
2022-10-17T06:21:21.835Z,98985.59
2022-10-17T06:23:50.944Z,98991.16
2022-10-17T06:26:26.833Z,98995.53
2022-10-17T06:28:54.979Z,98995.22
2022-10-17T06:31:21.988Z,98995.66
2022-10-17T06:33:50.629Z,98996.56
2022-10-17T06:36:18.149Z,99004.72
2022-10-17T06:38:46.315Z,98999.88
2022-10-17T06:41:20.605Z,98996.97
2022-10-17T06:43:48.454Z,99003.59
2022-10-17T06:46:44.789Z,99009.03
2022-10-17T06:49:18.477Z,99003.13
2022-10-17T06:52:13.556Z,99018.47
2022-10-17T06:54:49.526Z,99018.75
2022-10-17T06:57:39.014Z,99028.53
2022-10-17T07:00:26.877Z,99039.38
2022-10-17T07:02:56.798Z,99026.84
2022-10-17T07:05:23.664Z,99022.31
2022-10-17T07:07:51.854Z,99031.44
2022-10-17T07:10:19.575Z,99033.06
2022-10-17T07:12:46.278Z,99030.25
2022-10-17T07:15:13.271Z,99033.66
2022-10-17T07:17:39.896Z,99041.44
2022-10-17T07:20:07.311Z,99038.81
2022-10-17T07:22:36.131Z,99046.47
2022-10-17T07:25:02.930Z,99036.75
2022-10-17T07:27:34.361Z,99041.06
2022-10-17T07:30:01.818Z,99039.25
2022-10-17T07:32:35.118Z,99028.94
2022-10-17T07:35:02.673Z,99044.19
2022-10-17T07:37:29.967Z,99035.50
2022-10-17T07:39:56.929Z,99037.59
2022-10-17T07:42:26.373Z,99041.75
2022-10-17T07:44:54.639Z,99046.13
2022-10-17T07:47:25.725Z,99039.34
2022-10-17T07:49:59.132Z,99040.72
2022-10-17T07:52:32.130Z,99050.38
2022-10-17T07:55:04.042Z,99038.03
2022-10-17T07:57:36.592Z,99027.53
2022-10-17T08:00:23.115Z,99057.91
2022-10-17T08:02:56.266Z,99043.38
2022-10-17T08:05:23.608Z,99033.75
2022-10-17T08:08:05.768Z,99014.19
2022-10-17T08:10:32.649Z,99049.13
2022-10-17T08:13:02.370Z,99060.09
2022-10-17T08:15:31.749Z,99057.72
2022-10-17T08:17:59.661Z,99053.88
2022-10-17T08:20:30.677Z,99046.59
2022-10-17T08:23:04.339Z,99040.94
2022-10-17T08:25:31.379Z,99047.06
2022-10-17T08:28:02.020Z,99005.91
2022-10-17T08:30:30.819Z,99043.63
2022-10-17T08:32:57.461Z,99042.06
2022-10-17T08:35:24.296Z,99041.31
2022-10-17T08:37:53.547Z,99040.94
2022-10-17T08:40:35.471Z,99045.38
2022-10-17T08:43:41.553Z,99038.34
2022-10-17T08:46:24.066Z,98995.63
2022-10-17T08:49:02.282Z,99015.47
2022-10-17T08:51:35.813Z,99029.34
2022-10-17T08:54:43.902Z,99032.66
2022-10-17T08:57:15.688Z,99027.09
2022-10-17T08:59:51.523Z,99029.09
2022-10-17T09:02:42.840Z,99032.66
2022-10-17T09:05:51.579Z,99033.81
2022-10-17T09:08:42.476Z,99027.88
2022-10-17T09:11:55.308Z,99031.75
2022-10-17T09:14:40.972Z,99030.94
2022-10-17T09:17:07.616Z,99032.59
2022-10-17T09:20:00.789Z,99018.94
2022-10-17T09:22:42.202Z,99038.31
2022-10-17T09:25:20.384Z,99018.28
2022-10-17T09:27:57.017Z,99012.19
2022-10-17T09:30:46.583Z,99035.19
2022-10-17T09:33:35.684Z,99010.31
2022-10-17T09:36:35.423Z,99023.84
2022-10-17T09:39:06.332Z,99026.59
2022-10-17T09:41:55.711Z,99027.03
2022-10-17T09:44:44.304Z,99033.19
2022-10-17T09:47:28.511Z,99034.09
2022-10-17T09:49:55.668Z,99036.25
2022-10-17T09:52:30.801Z,99019.81
2022-10-17T09:55:03.681Z,99036.41
2022-10-17T09:57:55.122Z,99028.31
2022-10-17T10:00:30.749Z,99030.50
2022-10-17T10:03:15.559Z,99027.22
2022-10-17T10:05:43.596Z,99027.94
2022-10-17T10:08:17.056Z,99023.72
2022-10-17T10:10:45.114Z,99031.59
2022-10-17T10:13:11.688Z,99044.19
2022-10-17T10:15:43.407Z,99030.50
2022-10-17T10:18:25.307Z,99039.78
2022-10-17T10:21:13.379Z,99042.00
2022-10-17T10:24:03.379Z,99035.06
2022-10-17T10:26:50.697Z,99025.72
2022-10-17T10:29:42.094Z,99022.13
2022-10-17T10:32:20.961Z,99018.19
2022-10-17T10:35:05.987Z,99012.97
2022-10-17T10:37:43.490Z,99015.56
2022-10-17T10:40:16.349Z,99026.28
2022-10-17T10:42:43.806Z,99024.75
2022-10-17T10:45:48.517Z,99026.19
2022-10-17T10:48:24.205Z,99026.44
2022-10-17T10:50:54.122Z,99021.13
2022-10-17T10:53:35.116Z,99031.59
2022-10-17T10:56:13.473Z,99027.59
2022-10-17T10:58:46.724Z,99019.19
2022-10-17T11:01:21.970Z,99013.56
2022-10-17T11:03:58.883Z,99012.91
2022-10-17T11:06:34.293Z,99002.88
2022-10-17T11:09:24.007Z,98994.81
2022-10-17T11:12:11.674Z,99004.31
2022-10-17T11:14:57.414Z,99007.09
2022-10-17T11:17:52.196Z,99001.91
2022-10-17T11:20:30.722Z,99003.38
2022-10-17T11:23:37.370Z,98997.38
2022-10-17T11:26:11.321Z,98997.41
2022-10-17T11:28:38.379Z,98993.84
2022-10-17T11:31:32.150Z,98987.53
2022-10-17T11:34:19.420Z,98976.75
2022-10-17T11:36:55.016Z,98982.50
2022-10-17T11:40:09.773Z,98978.13
2022-10-17T11:42:54.638Z,98982.44
2022-10-17T11:45:32.206Z,98981.97
2022-10-17T11:48:09.028Z,98966.97
2022-10-17T11:53:37.740Z,98979.50
2022-10-17T11:56:06.300Z,98991.13
2022-10-17T11:58:54.698Z,98985.91
2022-10-17T12:01:45.179Z,98987.81
2022-10-17T12:04:36.201Z,98981.69
2022-10-17T12:07:22.343Z,98981.53
2022-10-17T12:10:16.280Z,98980.69
2022-10-17T12:12:43.462Z,98977.75
2022-10-17T12:15:13.084Z,98981.09
2022-10-17T12:17:51.486Z,98973.78
2022-10-17T12:20:24.310Z,98977.06
2022-10-17T12:23:10.767Z,98967.69
2022-10-17T12:25:51.751Z,98963.94
2022-10-17T12:28:30.795Z,98958.25
2022-10-17T12:31:05.359Z,98961.13
2022-10-17T12:33:35.641Z,98957.81
2022-10-17T12:36:22.024Z,98952.78
2022-10-17T12:39:14.620Z,98944.81
2022-10-17T12:41:42.620Z,98955.00
2022-10-17T12:44:15.700Z,98953.47
2022-10-17T12:46:56.577Z,98953.75
2022-10-17T12:49:42.531Z,98951.84
2022-10-17T12:52:37.098Z,98952.72
2022-10-17T12:55:18.839Z,98942.06
2022-10-17T12:58:14.178Z,98945.94
2022-10-17T13:01:23.894Z,98931.16
2022-10-17T13:03:58.939Z,98949.81
2022-10-17T13:06:30.268Z,98944.44
2022-10-17T13:09:05.848Z,98931.03
2022-10-17T13:11:38.384Z,98940.22
2022-10-17T13:14:13.327Z,98916.59
2022-10-17T13:16:52.823Z,98941.59
2022-10-17T13:19:23.730Z,98931.81
2022-10-17T13:22:00.949Z,98935.16
2022-10-17T13:24:38.886Z,98941.13
2022-10-17T13:27:27.116Z,98932.50
2022-10-17T13:29:56.427Z,98943.13
2022-10-17T13:32:27.976Z,98940.88
2022-10-17T13:35:13.949Z,98946.66
2022-10-17T13:37:42.809Z,98941.50
2022-10-17T13:40:44.242Z,98941.72
2022-10-17T13:43:15.834Z,98938.63
2022-10-17T13:45:48.431Z,98932.25
2022-10-17T13:48:27.344Z,98924.31
2022-10-17T13:51:00.376Z,98932.06
2022-10-17T13:53:44.881Z,98924.53
2022-10-17T13:56:29.552Z,98924.72
2022-10-17T13:59:22.664Z,98902.94
2022-10-17T14:01:56.047Z,98919.31
2022-10-17T14:04:22.815Z,98918.69
2022-10-17T14:06:52.314Z,98920.56
2022-10-17T14:09:28.890Z,98922.88
2022-10-17T14:11:58.751Z,98925.16
2022-10-17T14:14:26.929Z,98920.97
2022-10-17T14:16:54.130Z,98915.75
2022-10-17T14:19:33.085Z,98913.88
2022-10-17T14:22:25.375Z,98922.03
2022-10-17T14:24:55.224Z,98928.31
2022-10-17T14:27:38.142Z,98923.09
2022-10-17T14:30:51.653Z,98920.16
2022-10-17T14:33:27.185Z,98912.38
2022-10-17T14:35:58.138Z,98910.31
2022-10-17T14:38:28.936Z,98914.06
2022-10-17T14:41:37.450Z,98922.44
2022-10-17T14:44:03.796Z,98908.56
2022-10-17T14:46:31.136Z,98917.41
2022-10-17T14:49:07.301Z,98904.00
2022-10-17T14:51:50.660Z,98915.75
2022-10-17T14:54:38.329Z,98916.56
2022-10-17T14:57:22.259Z,98924.94
2022-10-17T14:59:54.217Z,98921.19
2022-10-17T15:02:21.880Z,98920.06
2022-10-17T15:04:48.571Z,98918.94
2022-10-17T15:07:17.399Z,98919.97
2022-10-17T15:09:56.443Z,98927.84
2022-10-17T15:12:43.620Z,98904.94
2022-10-17T15:15:21.223Z,98907.50
2022-10-17T15:17:48.250Z,98911.88
2022-10-17T15:20:25.114Z,98927.44
2022-10-17T15:22:56.100Z,98929.75
2022-10-17T15:25:30.082Z,98902.63
2022-10-17T15:27:57.974Z,98919.44
2022-10-17T15:30:32.764Z,98900.78
2022-10-17T15:33:01.163Z,98917.41
2022-10-17T15:35:29.034Z,98921.53
2022-10-17T15:37:56.498Z,98940.56
2022-10-17T15:40:29.283Z,98947.97
2022-10-17T15:42:59.417Z,98931.63
2022-10-17T15:45:26.826Z,98939.25
2022-10-17T15:47:57.178Z,98940.59
2022-10-17T15:50:24.019Z,98953.09
2022-10-17T15:52:51.210Z,98958.31
2022-10-17T15:55:18.990Z,98961.72
2022-10-17T15:57:47.401Z,98960.25
2022-10-17T16:00:18.436Z,98973.34
2022-10-17T16:02:52.491Z,98966.22
2022-10-17T16:05:30.344Z,98976.00
2022-10-17T16:07:58.032Z,98984.09
2022-10-17T16:10:26.044Z,98973.78
2022-10-17T16:12:53.470Z,98989.25
2022-10-17T16:15:25.913Z,98993.97
2022-10-17T16:17:55.753Z,99001.69
2022-10-17T16:20:24.285Z,98980.78
2022-10-17T16:22:51.751Z,98975.00
2022-10-17T16:25:27.478Z,98988.97
2022-10-17T16:27:56.695Z,98993.34
2022-10-17T16:30:29.812Z,98996.50
2022-10-17T16:33:00.810Z,99002.88
2022-10-17T16:35:33.228Z,99011.56
2022-10-17T16:38:04.058Z,99012.25
2022-10-17T16:40:30.768Z,99005.44
2022-10-17T16:42:57.567Z,99016.50
2022-10-17T16:45:27.985Z,99010.44
2022-10-17T16:47:55.364Z,99002.81
2022-10-17T16:50:22.796Z,99000.28
2022-10-17T16:52:49.467Z,99005.88
2022-10-17T16:55:18.931Z,99008.03
2022-10-17T16:57:45.714Z,99004.25
2022-10-17T17:00:12.812Z,99009.84
2022-10-17T17:02:41.664Z,99008.47
2022-10-17T17:05:09.874Z,99008.84
2022-10-17T17:07:37.288Z,98992.28
2022-10-17T17:10:04.825Z,99001.44
2022-10-17T17:12:35.662Z,99011.97
2022-10-17T17:15:03.641Z,99010.66
2022-10-17T17:17:48.440Z,99013.34
2022-10-17T17:20:17.003Z,99010.53
2022-10-17T17:22:43.766Z,99011.94
2022-10-17T17:25:10.477Z,99010.38
2022-10-17T17:27:37.206Z,99019.50
2022-10-17T17:30:04.780Z,99014.84
2022-10-17T17:35:28.150Z,99014.19
2022-10-17T17:37:58.362Z,99008.09
2022-10-17T17:40:25.238Z,99022.88
2022-10-17T17:42:57.335Z,99029.66
2022-10-17T17:45:27.843Z,99023.72
2022-10-17T17:47:56.018Z,99013.19
2022-10-17T17:50:30.130Z,99002.41
2022-10-17T17:53:03.650Z,99030.88
2022-10-17T17:55:30.409Z,99049.84
2022-10-17T17:57:57.267Z,99033.50
2022-10-17T18:00:24.302Z,99041.28
2022-10-17T18:02:51.087Z,99033.34
2022-10-17T18:05:17.867Z,99029.56
2022-10-17T18:07:44.632Z,99037.31
2022-10-17T18:12:42.307Z,99024.44
2022-10-17T18:15:09.231Z,99039.41
2022-10-17T18:17:36.033Z,99031.78
2022-10-17T18:20:03.594Z,99035.75
2022-10-17T18:22:31.599Z,99034.63
2022-10-17T18:24:58.763Z,99038.84
2022-10-17T18:27:25.394Z,99031.09
2022-10-17T18:29:52.097Z,99033.34
2022-10-17T18:32:18.925Z,99016.81
2022-10-17T18:34:45.652Z,99026.13
2022-10-17T18:37:12.522Z,99028.66
2022-10-17T18:39:39.241Z,99034.47
2022-10-17T18:42:05.943Z,99037.41
2022-10-17T18:44:32.692Z,99031.25
2022-10-17T18:47:03.095Z,99033.63
2022-10-17T18:49:31.474Z,99033.03
2022-10-17T18:51:59.770Z,99022.19
2022-10-17T18:54:35.927Z,99026.56
2022-10-17T18:57:02.609Z,99028.38
2022-10-17T18:59:34.088Z,99015.28
2022-10-17T19:02:00.840Z,99024.03
2022-10-17T19:04:27.928Z,99026.28
2022-10-17T19:06:54.625Z,99022.63
2022-10-17T19:09:21.629Z,99019.09
2022-10-17T19:11:48.883Z,99032.50
2022-10-17T19:14:15.812Z,99032.09
2022-10-17T19:16:46.416Z,99039.28
2022-10-17T19:19:16.396Z,99030.50
2022-10-17T19:21:44.263Z,99037.72
2022-10-17T19:24:16.960Z,99030.50
2022-10-17T19:26:45.578Z,99033.91
2022-10-17T19:29:17.088Z,99031.72
2022-10-17T19:31:45.098Z,99031.66
2022-10-17T19:34:12.842Z,99034.13
2022-10-17T19:36:40.273Z,99026.44
2022-10-17T19:39:19.620Z,99026.84
2022-10-17T19:41:48.054Z,99041.41
2022-10-17T19:44:14.977Z,99045.94
2022-10-17T19:46:44.378Z,99041.91
2022-10-17T19:49:11.725Z,99039.72
2022-10-17T19:51:38.396Z,99046.03
2022-10-17T19:54:05.090Z,99044.56
2022-10-17T19:56:33.443Z,99041.91
2022-10-17T19:59:00.175Z,99048.72
2022-10-17T20:01:32.609Z,99053.00
2022-10-17T20:03:59.676Z,99043.94
2022-10-17T20:06:26.711Z,99053.22
2022-10-17T20:08:53.955Z,99054.38
2022-10-17T20:11:23.461Z,99052.50
2022-10-17T20:13:50.687Z,99065.59
2022-10-17T20:16:23.384Z,99057.28
2022-10-17T20:18:51.558Z,99063.75
2022-10-17T20:21:24.133Z,99051.09
2022-10-17T20:23:51.082Z,99048.47
2022-10-17T20:26:37.109Z,99054.78
2022-10-17T20:29:11.883Z,99064.81
2022-10-17T20:31:40.055Z,99056.66
2022-10-17T20:34:06.831Z,99061.09
2022-10-17T20:36:37.360Z,99058.69
2022-10-17T20:39:05.398Z,99058.44
2022-10-17T20:41:32.497Z,99066.16
2022-10-17T20:43:59.145Z,99067.53
2022-10-17T20:49:18.429Z,99065.41
2022-10-17T20:51:45.537Z,99070.34
2022-10-17T20:54:12.864Z,99066.97
2022-10-17T20:56:39.840Z,99070.78
2022-10-17T20:59:12.713Z,99076.19
2022-10-17T21:01:39.529Z,99069.50
2022-10-17T21:04:33.405Z,99074.88
2022-10-17T21:06:53.518Z,99072.22
2022-10-17T21:09:20.986Z,99076.34
2022-10-17T21:11:51.563Z,99073.94
2022-10-17T21:14:18.739Z,99070.16
2022-10-17T21:16:48.440Z,99071.22
2022-10-17T21:19:16.201Z,99084.13
2022-10-17T21:21:45.739Z,99076.00
2022-10-17T21:24:16.803Z,99078.38
2022-10-17T21:26:45.072Z,99073.28
2022-10-17T21:29:14.932Z,99074.06
2022-10-17T21:31:44.046Z,99078.22
2022-10-17T21:34:13.135Z,99063.03
2022-10-17T21:36:39.870Z,99060.38
2022-10-17T21:41:34.706Z,99056.41
2022-10-17T21:44:06.673Z,99063.41
2022-10-17T21:46:34.116Z,99065.47
2022-10-17T21:49:01.325Z,99054.88
2022-10-17T21:51:28.454Z,99055.03
2022-10-17T21:53:57.264Z,99058.81
2022-10-17T21:56:28.623Z,99060.03
2022-10-17T21:58:55.646Z,99063.81
2022-10-17T22:01:28.213Z,99064.41
2022-10-17T22:03:57.581Z,99066.19
2022-10-17T22:06:42.542Z,99061.63
2022-10-17T22:09:21.263Z,99055.41
2022-10-17T22:11:50.451Z,99064.00
2022-10-17T22:14:19.520Z,99052.88
2022-10-17T22:16:47.203Z,99052.09
2022-10-17T22:19:17.846Z,99049.34
2022-10-17T22:21:44.803Z,99048.22
2022-10-17T22:24:14.546Z,99049.56
2022-10-17T22:26:42.026Z,99043.69
2022-10-17T22:29:09.585Z,99042.72
2022-10-17T22:31:37.371Z,99045.81
2022-10-17T22:34:05.609Z,99048.22
2022-10-17T22:36:33.612Z,99051.50
2022-10-17T22:39:00.276Z,99045.56
2022-10-17T22:41:27.263Z,99047.63
2022-10-17T22:43:53.933Z,99053.19
2022-10-17T22:46:20.611Z,99049.53
2022-10-17T22:48:47.247Z,99062.81
2022-10-17T22:51:14.269Z,99059.53
2022-10-17T22:53:41.123Z,99061.38
2022-10-17T22:56:15.066Z,99055.72
2022-10-17T22:58:42.169Z,99056.91
2022-10-17T23:01:12.975Z,99053.13
2022-10-17T23:03:39.786Z,99066.22
2022-10-17T23:06:06.535Z,99061.88
2022-10-17T23:08:33.291Z,99056.03
2022-10-17T23:10:59.999Z,99055.97
2022-10-17T23:13:26.753Z,99039.81
2022-10-17T23:15:55.411Z,99053.28
2022-10-17T23:18:23.190Z,99036.72
2022-10-17T23:20:50.672Z,99045.69
2022-10-17T23:23:17.773Z,99050.88
2022-10-17T23:25:44.575Z,99061.44
2022-10-17T23:28:11.637Z,99058.28
2022-10-17T23:30:39.103Z,99045.69
2022-10-17T23:33:06.482Z,99052.22
2022-10-17T23:35:33.601Z,99052.00
2022-10-17T23:38:00.224Z,99046.75
2022-10-17T23:40:27.006Z,99055.97
2022-10-17T23:42:53.773Z,99055.00
2022-10-17T23:45:20.938Z,99047.25
2022-10-17T23:47:47.527Z,99038.28
2022-10-17T23:50:14.089Z,99043.72
2022-10-17T23:52:40.724Z,99038.41
2022-10-17T23:55:08.277Z,99032.34
2022-10-17T23:57:35.019Z,99024.22
